Terminal Aerodrome Forecast
Issued by NWS Bismarck, ND

Home | Current Version | Previous Version | Text Only | Print | Product List | Glossary Off
Versions: 1 2 3 4 5 6 7 8 9 10 11 12 13 14 15 16 17 18

000
FTUS43 KBIS 271354 AAA
TAFISN
TAF AMD
KISN 271354Z 2714/2812 26011KT P6SM SCT140
     FM271800 30019G29KT P6SM BKN090
     FM272000 31021G33KT P6SM VCSH BKN090
     FM280100 33016G25KT P6SM SCT200
     FM280300 32008KT P6SM FEW200=

USA.gov is the U.S. government's official web portal to all federal, state and local government web resources and services.